.
WxDataArchive / Data Records for 2009-06-03
2009-06-02 June 2009 2009-06-04

Data Records for Wednesday, 03 June 2009

Time	Temp	Chill	HIndex	Humid	Dewpt	 Wind 	HiWind	WindDir	Rain 	Barom 
-----	----	-----	------	-----	-----	------	------	-------	-----	----- 
00:00	59.2	59.2	59.2	87	55.3	0	2	135	0.00	30.089 
00:05	59.2	59.2	59.2	88	55.6	0	1	135	0.00	30.089 
00:10	59.2	59.2	59.2	88	55.6	0	2	135	0.00	30.089 
00:15	59.2	59.2	59.2	88	55.6	0	0	---	0.00	30.093 
00:20	59.2	59.2	59.2	87	55.3	0	2	135	0.00	30.093 
00:25	59.2	59.2	59.2	87	55.3	0	3	135	0.00	30.093 
00:30	59.2	59.2	59.2	87	55.3	0	2	135	0.00	30.090 
00:35	59.2	59.2	59.2	86	55.0	1	4	135	0.00	30.090 
00:40	59.2	59.2	59.2	86	55.0	0	2	112	0.00	30.090 
00:45	59.2	59.2	59.2	86	55.0	0	0	---	0.00	30.087 
00:50	59.2	59.2	59.2	86	55.0	0	2	112	0.00	30.087 
00:55	59.0	59.0	59.0	86	54.8	0	2	112	0.00	30.087 
01:00	58.9	58.9	58.9	86	54.7	0	1	112	0.00	30.085 
01:05	58.9	58.9	58.9	86	54.7	0	1	112	0.00	30.085 
01:10	58.9	58.9	58.9	86	54.7	0	2	112	0.00	30.085 
01:15	58.7	58.7	58.7	87	54.8	0	2	112	0.00	30.082 
01:20	58.7	58.7	58.7	87	54.8	0	0	---	0.00	30.082 
01:25	58.7	58.7	58.7	87	54.8	0	1	112	0.00	30.082 
01:30	58.6	58.6	58.6	87	54.7	0	2	112	0.00	30.079 
01:35	58.6	58.6	58.6	87	54.7	0	1	112	0.00	30.079 
01:40	58.4	58.4	58.4	87	54.5	0	1	112	0.00	30.079 
01:45	58.4	58.4	58.4	88	54.9	0	1	112	0.00	30.080 
01:50	58.4	58.4	58.4	88	54.9	0	1	112	0.00	30.080 
01:55	58.4	58.4	58.4	88	54.9	0	0	---	0.00	30.080 
02:00	58.3	58.3	58.3	88	54.8	0	1	112	0.00	30.080 
02:05	58.3	58.3	58.3	88	54.8	0	0	---	0.00	30.080 
02:10	58.3	58.3	58.3	88	54.8	0	0	---	0.00	30.080 
02:15	58.3	58.3	58.3	89	55.1	0	1	112	0.00	30.079 
02:20	58.1	58.1	58.1	89	54.9	0	0	---	0.00	30.079 
02:25	58.1	58.1	58.1	89	54.9	0	0	---	0.00	30.079 
02:30	58.1	58.1	58.1	89	54.9	0	0	---	0.00	30.079 
02:35	58.0	58.0	58.0	89	54.8	0	0	---	0.00	30.079 
02:40	58.0	58.0	58.0	89	54.8	0	0	---	0.00	30.079 
02:45	57.8	57.8	57.8	89	54.6	0	0	---	0.00	30.075 
02:50	57.8	57.8	57.8	90	54.9	0	0	---	0.00	30.075 
02:55	57.6	57.6	57.6	89	54.4	0	1	112	0.00	30.075 
03:00	57.5	57.5	57.5	89	54.3	0	0	---	0.01	30.067 
03:05	57.3	57.3	57.3	89	54.1	0	2	112	0.00	30.067 
03:10	57.2	57.2	57.2	89	54.0	0	0	---	0.00	30.067 
03:15	57.0	57.0	57.0	89	53.8	0	1	112	0.00	30.064 
03:20	56.9	56.9	56.9	89	53.7	0	1	112	0.00	30.064 
03:25	56.7	56.7	56.7	90	53.8	0	1	112	0.01	30.064 
03:30	56.7	56.7	56.7	90	53.8	0	1	112	0.00	30.053 
03:35	56.7	56.7	56.7	91	54.1	0	2	112	0.00	30.053 
03:40	56.7	56.7	56.7	91	54.1	0	2	112	0.00	30.053 
03:45	56.6	56.6	56.6	91	54.0	0	2	112	0.00	30.042 
03:50	56.6	56.6	56.6	91	54.0	0	2	112	0.00	30.042 
03:55	56.5	56.5	56.5	90	53.6	0	2	112	0.00	30.042 
04:00	56.3	56.3	56.3	89	53.1	1	5	68	0.00	30.046 
04:05	56.3	56.3	56.3	90	53.4	0	2	68	0.00	30.046 
04:10	56.3	56.3	56.3	89	53.1	1	4	90	0.00	30.046 
04:15	56.2	56.2	56.2	89	53.0	1	3	112	0.00	30.035 
04:20	56.0	56.0	56.0	89	52.8	1	3	112	0.00	30.035 
04:25	56.0	56.0	56.0	88	52.5	1	4	112	0.00	30.035 
04:30	55.9	55.9	55.9	88	52.4	2	5	112	0.00	30.034 
04:35	55.9	55.9	55.9	88	52.4	1	4	112	0.00	30.034 
04:40	55.9	55.9	55.9	88	52.4	1	4	112	0.00	30.034 
04:45	55.9	55.9	55.9	88	52.4	0	2	112	0.00	30.035 
04:50	55.9	55.9	55.9	88	52.4	1	4	90	0.00	30.035 
04:55	55.9	55.9	55.9	88	52.4	0	3	112	0.00	30.035 
05:00	55.7	55.7	55.7	88	52.2	0	3	112	0.00	30.036 
05:05	55.6	55.6	55.6	88	52.1	0	2	112	0.00	30.036 
05:10	55.6	55.6	55.6	88	52.1	0	2	112	0.00	30.036 
05:15	55.6	55.6	55.6	88	52.1	0	1	112	0.00	30.044 
05:20	55.6	55.6	55.6	89	52.4	0	1	112	0.00	30.044 
05:25	55.6	55.6	55.6	89	52.4	0	3	112	0.00	30.044 
05:30	55.4	55.4	55.4	89	52.2	0	2	112	0.00	30.039 
05:35	55.4	55.4	55.4	89	52.2	0	2	112	0.00	30.039 
05:40	55.4	55.4	55.4	89	52.2	0	3	112	0.00	30.039 
05:45	55.4	55.4	55.4	89	52.2	0	3	112	0.00	30.050 
05:50	55.4	55.4	55.4	89	52.2	0	2	112	0.00	30.050 
05:55	55.4	55.4	55.4	89	52.2	0	1	112	0.00	30.050 
06:00	55.4	55.4	55.4	89	52.2	0	2	112	0.00	30.056 
06:05	55.4	55.4	55.4	89	52.2	0	4	112	0.00	30.056 
06:10	55.6	55.6	55.6	88	52.1	0	3	112	0.00	30.056 
06:15	55.6	55.6	55.6	88	52.1	0	1	112	0.00	30.066 
06:20	55.6	55.6	55.6	88	52.1	0	2	112	0.00	30.066 
06:25	55.6	55.6	55.6	88	52.1	0	2	112	0.00	30.066 
06:30	55.6	55.6	55.6	88	52.1	0	2	112	0.00	30.078 
06:35	55.6	55.6	55.6	88	52.1	0	3	112	0.00	30.078 
06:40	55.7	55.7	55.7	88	52.2	1	3	112	0.00	30.078 
06:45	55.6	55.6	55.6	88	52.1	1	3	112	0.00	30.075 
06:50	55.6	55.6	55.6	88	52.1	1	4	112	0.00	30.075 
06:55	55.6	55.6	55.6	89	52.4	0	3	112	0.01	30.075 
07:00	55.6	55.6	55.6	89	52.4	0	2	112	0.00	30.081 
07:05	55.6	55.6	55.6	89	52.4	0	1	112	0.00	30.081 
07:10	55.6	55.6	55.6	90	52.7	0	0	---	0.00	30.081 
07:15	55.4	55.4	55.4	90	52.5	0	1	112	0.00	30.094 
07:20	55.6	55.6	55.6	90	52.7	0	1	112	0.00	30.094 
07:25	55.6	55.6	55.6	90	52.7	0	2	112	0.00	30.094 
07:30	55.6	55.6	55.6	91	53.0	0	0	---	0.00	30.099 
07:35	55.6	55.6	55.6	91	53.0	0	0	---	0.00	30.099 
07:40	55.6	55.6	55.6	90	52.7	0	2	112	0.00	30.099 
07:45	55.6	55.6	55.6	90	52.7	0	1	112	0.00	30.100 
07:50	55.6	55.6	55.6	91	53.0	0	0	---	0.00	30.100 
07:55	55.7	55.7	55.7	91	53.1	0	0	---	0.00	30.100 
08:00	55.7	55.7	55.7	91	53.1	0	0	---	0.00	30.114 
08:05	55.7	55.7	55.7	91	53.1	0	0	---	0.00	30.114 
08:10	55.7	55.7	55.7	91	53.1	0	1	112	0.00	30.114 
08:15	55.9	55.9	55.9	91	53.3	0	1	112	0.00	30.117 
08:20	56.0	56.0	56.0	91	53.4	0	0	---	0.00	30.117 
08:25	56.0	56.0	56.0	91	53.4	0	1	112	0.00	30.117 
08:30	56.2	56.2	56.2	91	53.6	0	1	112	0.00	30.118 
08:35	56.3	56.3	56.3	91	53.7	0	1	112	0.00	30.118 
08:40	56.5	56.5	56.5	91	53.9	0	3	112	0.00	30.118 
08:45	56.3	56.3	56.3	91	53.7	0	2	112	0.00	30.124 
08:50	56.5	56.5	56.5	91	53.9	0	2	112	0.00	30.124 
08:55	56.5	56.5	56.5	90	53.6	0	1	112	0.00	30.124 
09:00	56.5	56.5	56.5	90	53.6	0	2	112	0.00	30.129 
09:05	56.5	56.5	56.5	90	53.6	1	2	112	0.00	30.129 
09:10	56.3	56.3	56.3	90	53.4	1	3	112	0.00	30.129 
09:15	56.5	56.5	56.5	90	53.6	1	3	112	0.00	30.129 
09:20	56.5	56.5	56.5	90	53.6	0	1	112	0.00	30.129 
09:25	56.3	56.3	56.3	89	53.1	1	3	112	0.00	30.129 
09:30	56.3	56.3	56.3	89	53.1	1	3	112	0.00	30.133 
09:35	56.3	56.3	56.3	89	53.1	1	3	112	0.00	30.133 
09:40	56.3	56.3	56.3	89	53.1	0	3	112	0.00	30.133 
09:45	56.3	56.3	56.3	89	53.1	1	3	90	0.00	30.132 
09:50	56.3	56.3	56.3	89	53.1	1	3	90	0.00	30.132 
09:55	56.5	56.5	56.5	89	53.3	0	2	90	0.00	30.132 
10:00	56.6	56.6	56.6	89	53.4	1	4	90	0.00	30.132 
10:05	56.5	56.5	56.5	88	53.0	2	4	90	0.00	30.132 
10:10	56.6	56.6	56.6	89	53.4	1	3	90	0.00	30.132 
10:15	56.7	56.7	56.7	89	53.5	1	3	90	0.01	30.132 
10:20	56.7	56.7	56.7	88	53.2	2	4	90	0.00	30.132 
10:25	56.7	56.7	56.7	88	53.2	2	5	90	0.00	30.132 
10:30	56.7	56.7	56.7	87	52.9	2	7	90	0.00	30.132 
10:35	56.9	56.9	56.9	87	53.1	1	3	90	0.00	30.132 
10:40	57.0	57.0	57.0	87	53.2	2	6	90	0.00	30.132 
10:45	57.0	57.0	57.0	85	52.5	2	6	90	0.00	30.133 
10:50	56.9	56.9	56.9	84	52.1	2	5	90	0.00	30.133 
10:55	57.0	57.0	57.0	85	52.5	2	9	112	0.00	30.133 
11:00	56.9	56.9	56.9	84	52.1	3	9	90	0.00	30.132 
11:05	56.9	56.9	56.9	85	52.4	2	5	112	0.00	30.132 
11:10	56.9	56.9	56.9	85	52.4	2	6	90	0.00	30.132 
11:15	57.0	57.0	57.0	85	52.5	1	4	90	0.00	30.133 
11:20	57.0	57.0	57.0	85	52.5	2	5	68	0.00	30.133 
11:25	57.0	57.0	57.0	86	52.9	1	5	68	0.00	30.133 
11:30	57.2	57.2	57.2	86	53.0	1	3	90	0.00	30.135 
11:35	57.2	57.2	57.2	87	53.4	1	3	90	0.00	30.135 
11:40	57.2	57.2	57.2	87	53.4	0	1	90	0.00	30.135 
11:45	57.2	57.2	57.2	87	53.4	1	3	90	0.00	30.136 
11:50	57.3	57.3	57.3	87	53.5	1	4	90	0.00	30.136 
11:55	57.3	57.3	57.3	86	53.1	1	4	112	0.00	30.136 
12:00	57.3	57.3	57.3	84	52.5	1	4	112	0.00	30.145 
12:05	57.3	57.3	57.3	84	52.5	1	4	112	0.00	30.145 
12:10	57.3	57.3	57.3	84	52.5	1	3	90	0.00	30.145 
12:15	57.5	57.5	57.5	84	52.7	1	4	90	0.00	30.147 
12:20	57.3	57.3	57.3	85	52.8	1	4	68	0.00	30.147 
12:25	57.5	57.5	57.5	86	53.3	0	2	68	0.00	30.147 
12:30	57.3	57.3	57.3	87	53.5	0	2	68	0.01	30.149 
12:35	57.3	57.3	57.3	87	53.5	0	2	68	0.00	30.149 
12:40	57.0	57.0	57.0	85	52.5	1	4	68	0.00	30.149 
12:45	57.0	57.0	57.0	85	52.5	1	3	68	0.00	30.147 
12:50	56.9	56.9	56.9	86	52.8	1	2	68	0.00	30.147 
12:55	57.0	57.0	57.0	87	53.2	1	3	68	0.00	30.147 
13:00	57.0	57.0	57.0	87	53.2	1	3	68	0.00	30.138 
13:05	57.0	57.0	57.0	88	53.5	1	3	90	0.01	30.138 
13:10	56.9	56.9	56.9	88	53.4	0	2	90	0.00	30.138 
13:15	56.7	56.7	56.7	87	52.9	0	3	112	0.00	30.135 
13:20	56.6	56.6	56.6	87	52.8	1	4	112	0.00	30.135 
13:25	56.5	56.5	56.5	88	53.0	0	1	112	0.00	30.135 
13:30	56.3	56.3	56.3	87	52.5	0	2	112	0.00	30.132 
13:35	56.3	56.3	56.3	87	52.5	0	1	112	0.00	30.132 
13:40	56.5	56.5	56.5	87	52.7	0	2	112	0.00	30.132 
13:45	56.3	56.3	56.3	86	52.2	1	3	112	0.00	30.129 
13:50	56.3	56.3	56.3	85	51.8	1	2	112	0.00	30.129 
13:55	56.3	56.3	56.3	85	51.8	1	3	112	0.00	30.129 
14:00	56.5	56.5	56.5	85	52.0	1	3	112	0.00	30.120 
14:05	56.5	56.5	56.5	84	51.7	1	3	112	0.00	30.120 
14:10	56.5	56.5	56.5	84	51.7	1	2	135	0.00	30.120 
14:15	56.5	56.5	56.5	84	51.7	0	2	135	0.00	30.119 
14:20	56.5	56.5	56.5	82	51.1	1	3	135	0.00	30.119 
14:25	56.5	56.5	56.5	83	51.4	1	3	45	0.00	30.119 
14:30	56.6	56.6	56.6	81	50.8	1	6	45	0.00	30.118 
14:35	56.6	56.6	56.6	81	50.8	1	3	68	0.00	30.118 
14:40	56.7	56.7	56.7	81	50.9	1	2	90	0.00	30.118 
14:45	56.7	56.7	56.7	81	50.9	1	4	68	0.00	30.114 
14:50	56.7	56.7	56.7	81	50.9	2	4	90	0.00	30.114 
14:55	56.7	56.7	56.7	81	50.9	1	4	90	0.00	30.114 
15:00	56.9	56.9	56.9	81	51.1	1	3	90	0.00	30.110 
15:05	57.2	57.2	57.2	81	51.4	1	3	112	0.00	30.110 
15:10	57.2	57.2	57.2	81	51.4	1	2	112	0.00	30.110 
15:15	57.5	57.5	57.5	81	51.7	1	3	112	0.00	30.110 
15:20	57.6	57.6	57.6	82	52.1	0	2	112	0.00	30.110 
15:25	57.8	57.8	57.8	82	52.3	1	3	112	0.00	30.110 
15:30	57.8	57.8	57.8	82	52.3	1	3	112	0.00	30.107 
15:35	57.8	57.8	57.8	81	52.0	1	2	112	0.00	30.107 
15:40	57.8	57.8	57.8	81	52.0	1	2	112	0.00	30.107 
15:45	58.1	58.1	58.1	81	52.3	0	3	68	0.00	30.106 
15:50	58.1	58.1	58.1	82	52.6	1	3	68	0.00	30.106 
15:55	58.1	58.1	58.1	79	51.6	1	3	68	0.00	30.106 
16:00	58.1	58.1	58.1	80	52.0	0	1	68	0.00	30.105 
16:05	58.4	58.4	58.4	80	52.3	1	3	135	0.00	30.105 
16:10	58.6	58.6	58.6	80	52.4	0	2	135	0.00	30.105 
16:15	58.7	58.7	58.7	80	52.5	0	3	135	0.00	30.103 
16:20	58.9	58.9	58.9	79	52.4	1	2	135	0.00	30.103 
16:25	59.0	59.0	59.0	79	52.5	0	1	135	0.00	30.103 
16:30	59.2	59.2	59.2	79	52.7	0	1	135	0.00	30.101 
16:35	59.2	59.2	59.2	78	52.3	0	2	135	0.00	30.101 
16:40	59.2	59.2	59.2	77	52.0	0	2	135	0.00	30.101 
16:45	59.2	59.2	59.2	77	52.0	0	1	135	0.00	30.100 
16:50	59.2	59.2	59.2	79	52.7	0	0	---	0.00	30.100 
16:55	59.3	59.3	59.3	79	52.8	0	2	135	0.00	30.100 
17:00	59.3	59.3	59.3	77	52.1	0	2	135	0.00	30.094 
17:05	59.5	59.5	59.5	77	52.3	0	2	135	0.00	30.094 
17:10	59.5	59.5	59.5	77	52.3	0	1	135	0.00	30.094 
17:15	59.6	59.6	59.6	75	51.7	0	2	135	0.00	30.088 
17:20	59.6	59.6	59.6	75	51.7	0	2	135	0.00	30.088 
17:25	59.8	59.8	59.8	75	51.9	0	2	135	0.00	30.088 
17:30	59.9	59.9	59.9	75	52.0	1	3	135	0.00	30.086 
17:35	60.2	60.2	60.2	74	51.9	0	2	90	0.00	30.086 
17:40	60.7	60.7	60.7	73	52.0	0	1	90	0.00	30.086 
17:45	61.0	61.0	61.0	74	52.6	0	1	90	0.00	30.084 
17:50	61.2	61.2	61.2	73	52.5	1	3	90	0.00	30.084 
17:55	61.2	61.2	61.2	73	52.5	1	3	90	0.00	30.084 
18:00	61.3	61.3	61.3	73	52.6	0	2	90	0.00	30.081 
18:05	61.3	61.3	61.3	73	52.6	0	2	90	0.00	30.081 
18:10	61.2	61.2	61.2	72	52.1	1	4	90	0.00	30.081 
18:15	61.0	61.0	61.0	73	52.3	0	4	90	0.00	30.073 
18:20	60.7	60.7	60.7	72	51.6	1	3	90	0.00	30.073 
18:25	60.9	60.9	60.9	74	52.6	0	1	90	0.00	30.073 
18:30	60.9	60.9	60.9	74	52.6	0	2	90	0.00	30.071 
18:35	61.0	61.0	61.0	74	52.6	0	2	90	0.00	30.071 
18:40	61.2	61.2	61.2	71	51.7	1	3	90	0.00	30.071 
18:45	61.3	61.3	61.3	72	52.2	0	2	90	0.00	30.070 
18:50	61.3	61.3	61.3	72	52.2	0	3	90	0.00	30.070 
18:55	61.2	61.2	61.2	71	51.7	0	2	90	0.00	30.070 
19:00	61.2	61.2	61.2	71	51.7	0	3	90	0.00	30.070 
19:05	61.0	61.0	61.0	71	51.5	1	4	90	0.00	30.070 
19:10	61.2	61.2	61.2	72	52.1	0	2	90	0.00	30.070 
19:15	61.2	61.2	61.2	71	51.7	1	4	90	0.00	30.068 
19:20	61.2	61.2	61.2	72	52.1	0	2	90	0.00	30.068 
19:25	61.0	61.0	61.0	70	51.1	0	2	90	0.00	30.068 
19:30	61.0	61.0	61.0	71	51.5	0	1	90	0.00	30.070 
19:35	61.0	61.0	61.0	72	51.9	0	1	90	0.00	30.070 
19:40	60.9	60.9	60.9	71	51.4	0	2	90	0.00	30.070 
19:45	60.9	60.9	60.9	72	51.8	0	1	90	0.00	30.078 
19:50	60.7	60.7	60.7	72	51.6	0	3	90	0.00	30.078 
19:55	60.7	60.7	60.7	71	51.2	0	1	90	0.00	30.078 
20:00	60.7	60.7	60.7	72	51.6	0	0	---	0.00	30.082 
20:05	60.7	60.7	60.7	73	52.0	0	1	90	0.00	30.082 
20:10	60.5	60.5	60.5	73	51.8	0	1	90	0.00	30.082 
20:15	60.5	60.5	60.5	73	51.8	0	1	90	0.00	30.079 
20:20	60.4	60.4	60.4	73	51.7	0	1	90	0.00	30.079 
20:25	60.2	60.2	60.2	73	51.5	0	1	90	0.00	30.079 
20:30	60.1	60.1	60.1	74	51.8	0	0	---	0.00	30.083 
20:35	59.9	59.9	59.9	74	51.6	0	0	---	0.00	30.083 
20:40	59.8	59.8	59.8	75	51.9	0	0	---	0.00	30.083 
20:45	59.6	59.6	59.6	76	52.0	0	0	---	0.00	30.083 
20:50	59.3	59.3	59.3	77	52.1	0	0	---	0.00	30.083 
20:55	59.0	59.0	59.0	77	51.8	0	0	---	0.00	30.083 
21:00	58.7	58.7	58.7	78	51.9	0	0	---	0.00	30.082 
21:05	58.4	58.4	58.4	79	51.9	0	0	---	0.00	30.082 
21:10	58.1	58.1	58.1	79	51.6	0	0	---	0.00	30.082 
21:15	57.8	57.8	57.8	80	51.7	0	0	---	0.00	30.082 
21:20	57.5	57.5	57.5	80	51.4	0	0	---	0.00	30.082 
21:25	57.2	57.2	57.2	80	51.1	0	0	---	0.00	30.082 
21:30	56.7	56.7	56.7	82	51.3	0	0	---	0.00	30.077 
21:35	56.2	56.2	56.2	84	51.4	0	0	---	0.00	30.077 
21:40	55.7	55.7	55.7	84	50.9	0	0	---	0.00	30.077 
21:45	55.4	55.4	55.4	85	51.0	0	0	---	0.00	30.086 
21:50	55.1	55.1	55.1	85	50.7	0	0	---	0.00	30.086 
21:55	54.8	54.8	54.8	85	50.4	0	0	---	0.00	30.086 
22:00	54.5	54.5	54.5	85	50.1	0	0	---	0.00	30.094 
22:05	54.4	54.4	54.4	85	50.0	0	0	---	0.00	30.094 
22:10	54.1	54.1	54.1	86	50.0	0	0	---	0.00	30.094 
22:15	53.9	53.9	53.9	87	50.1	0	0	---	0.00	30.105 
22:20	53.6	53.6	53.6	87	49.8	0	0	---	0.00	30.105 
22:25	53.3	53.3	53.3	88	49.8	0	0	---	0.00	30.105 
22:30	53.1	53.1	53.1	88	49.6	0	0	---	0.00	30.107 
22:35	52.9	52.9	52.9	89	49.7	0	0	---	0.00	30.107 
22:40	52.6	52.6	52.6	89	49.4	0	0	---	0.00	30.107 
22:45	52.5	52.5	52.5	90	49.7	0	0	---	0.00	30.110 
22:50	52.3	52.3	52.3	90	49.5	0	0	---	0.00	30.110 
22:55	52.2	52.2	52.2	90	49.4	0	0	---	0.00	30.110 
23:00	51.9	51.9	51.9	91	49.4	0	0	---	0.00	30.111 
23:05	51.7	51.7	51.7	91	49.2	0	0	---	0.00	30.111 
23:10	51.6	51.6	51.6	91	49.1	0	0	---	0.00	30.111 
23:15	51.4	51.4	51.4	91	48.9	0	0	---	0.00	30.109 
23:20	51.3	51.3	51.3	92	49.1	0	0	---	0.00	30.109 
23:25	51.1	51.1	51.1	92	48.9	0	0	---	0.00	30.109 
23:30	51.0	51.0	51.0	92	48.8	0	0	---	0.00	30.107 
23:35	51.0	51.0	51.0	92	48.8	0	0	---	0.00	30.107 
23:40	50.7	50.7	50.7	92	48.5	0	0	---	0.00	30.107 
23:45	50.5	50.5	50.5	92	48.3	0	0	---	0.00	30.107 
23:50	50.4	50.4	50.4	92	48.2	0	0	---	0.00	30.107 
23:55	50.2	50.2	50.2	92	48.0	0	0	---	0.00	30.107 

CoCoRaHS
IN-AL-39
A2 Web Hosting
Creative Commons License
GoDaddy
search engine by freefind advanced

loaded 2018-11-17 15:22:07 • last modified 2010-11-18 10:43:29
Privacy PolicyDisclaimer
• wx.awcolley.com is powered by PmWiki v.2002016 •
• all content (unless otherwise noted) © 2018 A W Colley